sensor_id;sensor_type;location;lat;lon;timestamp;P1;durP1;ratioP1;P2;durP2;ratioP2
75997;SDS011;64685;48.762;44.822;2023-11-21T00:04:35;21.65;;;7.68;;
75997;SDS011;64685;48.762;44.822;2023-11-21T00:09:40;18.00;;;7.20;;
75997;SDS011;64685;48.762;44.822;2023-11-21T00:14:43;19.88;;;6.43;;
75997;SDS011;64685;48.762;44.822;2023-11-21T00:19:46;22.25;;;6.38;;
75997;SDS011;64685;48.762;44.822;2023-11-21T00:24:49;22.55;;;6.85;;
75997;SDS011;64685;48.762;44.822;2023-11-21T00:29:52;20.45;;;6.47;;
75997;SDS011;64685;48.762;44.822;2023-11-21T00:34:55;19.58;;;6.78;;
75997;SDS011;64685;48.762;44.822;2023-11-21T00:39:58;15.30;;;5.75;;
75997;SDS011;64685;48.762;44.822;2023-11-21T00:45:05;17.35;;;5.75;;
75997;SDS011;64685;48.762;44.822;2023-11-21T00:50:08;14.45;;;6.25;;
75997;SDS011;64685;48.762;44.822;2023-11-21T00:55:12;19.65;;;6.82;;
75997;SDS011;64685;48.762;44.822;2023-11-21T01:00:14;17.83;;;6.68;;
75997;SDS011;64685;48.762;44.822;2023-11-21T01:05:19;20.30;;;6.47;;
75997;SDS011;64685;48.762;44.822;2023-11-21T01:10:22;23.20;;;6.47;;
75997;SDS011;64685;48.762;44.822;2023-11-21T01:15:25;17.75;;;6.22;;
75997;SDS011;64685;48.762;44.822;2023-11-21T01:20:30;20.17;;;6.28;;
75997;SDS011;64685;48.762;44.822;2023-11-21T01:25:33;17.77;;;7.00;;
75997;SDS011;64685;48.762;44.822;2023-11-21T01:30:36;21.75;;;6.72;;
75997;SDS011;64685;48.762;44.822;2023-11-21T01:35:39;15.68;;;6.30;;
75997;SDS011;64685;48.762;44.822;2023-11-21T01:40:42;18.92;;;6.05;;
75997;SDS011;64685;48.762;44.822;2023-11-21T01:45:46;41.28;;;10.40;;
75997;SDS011;64685;48.762;44.822;2023-11-21T01:50:49;34.33;;;9.10;;
75997;SDS011;64685;48.762;44.822;2023-11-21T01:55:52;29.25;;;7.60;;
75997;SDS011;64685;48.762;44.822;2023-11-21T02:01:00;23.30;;;6.60;;
75997;SDS011;64685;48.762;44.822;2023-11-21T02:06:03;15.82;;;4.55;;
75997;SDS011;64685;48.762;44.822;2023-11-21T02:11:07;8.75;;;3.13;;
75997;SDS011;64685;48.762;44.822;2023-11-21T02:16:11;8.50;;;3.83;;
75997;SDS011;64685;48.762;44.822;2023-11-21T02:21:15;10.40;;;3.28;;
75997;SDS011;64685;48.762;44.822;2023-11-21T02:26:18;8.65;;;3.83;;
75997;SDS011;64685;48.762;44.822;2023-11-21T02:31:22;9.65;;;3.25;;
75997;SDS011;64685;48.762;44.822;2023-11-21T02:36:25;8.38;;;2.92;;
75997;SDS011;64685;48.762;44.822;2023-11-21T02:41:28;8.02;;;3.20;;
75997;SDS011;64685;48.762;44.822;2023-11-21T02:46:32;9.38;;;3.10;;
75997;SDS011;64685;48.762;44.822;2023-11-21T02:51:36;8.23;;;2.78;;
75997;SDS011;64685;48.762;44.822;2023-11-21T02:56:40;8.68;;;2.88;;
75997;SDS011;64685;48.762;44.822;2023-11-21T03:01:43;8.75;;;2.85;;
75997;SDS011;64685;48.762;44.822;2023-11-21T03:06:46;6.70;;;2.40;;
75997;SDS011;64685;48.762;44.822;2023-11-21T03:11:49;7.82;;;2.97;;
75997;SDS011;64685;48.762;44.822;2023-11-21T03:16:52;5.20;;;2.22;;
75997;SDS011;64685;48.762;44.822;2023-11-21T03:21:56;4.53;;;1.65;;
75997;SDS011;64685;48.762;44.822;2023-11-21T03:26:59;4.90;;;1.80;;
75997;SDS011;64685;48.762;44.822;2023-11-21T03:32:02;6.53;;;2.00;;
75997;SDS011;64685;48.762;44.822;2023-11-21T03:37:05;3.63;;;1.38;;
75997;SDS011;64685;48.762;44.822;2023-11-21T03:42:07;3.63;;;1.30;;
75997;SDS011;64685;48.762;44.822;2023-11-21T03:47:10;4.10;;;1.50;;
75997;SDS011;64685;48.762;44.822;2023-11-21T03:52:14;4.38;;;1.45;;
75997;SDS011;64685;48.762;44.822;2023-11-21T03:57:17;5.10;;;1.50;;
75997;SDS011;64685;48.762;44.822;2023-11-21T04:02:19;4.78;;;1.75;;
75997;SDS011;64685;48.762;44.822;2023-11-21T04:07:22;5.85;;;1.95;;
75997;SDS011;64685;48.762;44.822;2023-11-21T04:12:25;5.95;;;2.10;;
75997;SDS011;64685;48.762;44.822;2023-11-21T04:17:28;7.82;;;2.47;;
75997;SDS011;64685;48.762;44.822;2023-11-21T04:22:31;7.90;;;2.53;;
75997;SDS011;64685;48.762;44.822;2023-11-21T04:27:33;8.30;;;2.67;;
75997;SDS011;64685;48.762;44.822;2023-11-21T04:32:36;4.50;;;1.70;;
75997;SDS011;64685;48.762;44.822;2023-11-21T04:37:39;4.22;;;1.40;;
75997;SDS011;64685;48.762;44.822;2023-11-21T04:42:42;5.47;;;1.80;;
75997;SDS011;64685;48.762;44.822;2023-11-21T04:47:45;5.22;;;2.00;;
75997;SDS011;64685;48.762;44.822;2023-11-21T04:52:48;4.85;;;2.17;;
75997;SDS011;64685;48.762;44.822;2023-11-21T04:57:50;5.13;;;1.90;;
75997;SDS011;64685;48.762;44.822;2023-11-21T05:02:53;4.93;;;1.95;;
75997;SDS011;64685;48.762;44.822;2023-11-21T05:07:56;2.08;;;0.95;;
75997;SDS011;64685;48.762;44.822;2023-11-21T05:12:59;4.72;;;1.60;;
75997;SDS011;64685;48.762;44.822;2023-11-21T05:18:02;7.32;;;3.15;;
75997;SDS011;64685;48.762;44.822;2023-11-21T05:23:05;8.50;;;3.80;;
75997;SDS011;64685;48.762;44.822;2023-11-21T05:28:08;11.55;;;5.15;;
75997;SDS011;64685;48.762;44.822;2023-11-21T05:33:10;12.05;;;5.65;;
75997;SDS011;64685;48.762;44.822;2023-11-21T05:38:14;14.00;;;6.85;;
75997;SDS011;64685;48.762;44.822;2023-11-21T05:43:17;17.30;;;8.02;;
75997;SDS011;64685;48.762;44.822;2023-11-21T05:48:20;16.48;;;6.95;;
75997;SDS011;64685;48.762;44.822;2023-11-21T05:53:23;9.57;;;3.97;;
75997;SDS011;64685;48.762;44.822;2023-11-21T05:58:26;11.45;;;3.45;;
75997;SDS011;64685;48.762;44.822;2023-11-21T06:03:28;7.10;;;2.55;;
75997;SDS011;64685;48.762;44.822;2023-11-21T06:08:31;7.03;;;2.15;;
75997;SDS011;64685;48.762;44.822;2023-11-21T06:13:34;7.15;;;1.75;;
75997;SDS011;64685;48.762;44.822;2023-11-21T06:18:37;8.80;;;2.50;;
75997;SDS011;64685;48.762;44.822;2023-11-21T06:23:40;8.02;;;2.88;;
75997;SDS011;64685;48.762;44.822;2023-11-21T06:28:43;7.90;;;2.55;;
75997;SDS011;64685;48.762;44.822;2023-11-21T06:33:46;9.30;;;2.50;;
75997;SDS011;64685;48.762;44.822;2023-11-21T06:38:49;6.22;;;2.42;;
75997;SDS011;64685;48.762;44.822;2023-11-21T06:43:51;8.35;;;2.75;;
75997;SDS011;64685;48.762;44.822;2023-11-21T06:48:55;6.47;;;2.67;;
75997;SDS011;64685;48.762;44.822;2023-11-21T06:53:58;7.60;;;2.50;;
75997;SDS011;64685;48.762;44.822;2023-11-21T06:59:01;9.15;;;3.28;;
75997;SDS011;64685;48.762;44.822;2023-11-21T07:04:05;7.88;;;3.22;;
75997;SDS011;64685;48.762;44.822;2023-11-21T07:09:09;8.93;;;3.63;;
75997;SDS011;64685;48.762;44.822;2023-11-21T07:14:14;6.65;;;2.72;;
75997;SDS011;64685;48.762;44.822;2023-11-21T07:19:17;11.90;;;4.00;;
75997;SDS011;64685;48.762;44.822;2023-11-21T07:24:20;9.55;;;3.70;;
75997;SDS011;64685;48.762;44.822;2023-11-21T07:29:26;11.48;;;4.20;;
75997;SDS011;64685;48.762;44.822;2023-11-21T07:34:31;12.82;;;4.93;;
75997;SDS011;64685;48.762;44.822;2023-11-21T07:39:34;9.18;;;3.75;;
75997;SDS011;64685;48.762;44.822;2023-11-21T07:44:38;9.68;;;3.22;;
75997;SDS011;64685;48.762;44.822;2023-11-21T07:49:41;7.97;;;2.38;;
75997;SDS011;64685;48.762;44.822;2023-11-21T07:54:46;9.13;;;3.42;;
75997;SDS011;64685;48.762;44.822;2023-11-21T07:59:48;8.88;;;3.35;;
75997;SDS011;64685;48.762;44.822;2023-11-21T08:04:51;8.77;;;3.30;;
75997;SDS011;64685;48.762;44.822;2023-11-21T08:09:54;8.98;;;3.20;;
75997;SDS011;64685;48.762;44.822;2023-11-21T08:14:58;9.55;;;3.38;;
75997;SDS011;64685;48.762;44.822;2023-11-21T08:20:01;8.20;;;3.22;;
75997;SDS011;64685;48.762;44.822;2023-11-21T08:25:05;9.23;;;3.72;;
75997;SDS011;64685;48.762;44.822;2023-11-21T08:30:10;9.80;;;3.63;;
75997;SDS011;64685;48.762;44.822;2023-11-21T08:35:14;10.02;;;3.90;;
75997;SDS011;64685;48.762;44.822;2023-11-21T08:40:18;4.95;;;1.83;;
75997;SDS011;64685;48.762;44.822;2023-11-21T08:45:23;4.40;;;1.70;;
75997;SDS011;64685;48.762;44.822;2023-11-21T08:50:26;5.75;;;2.05;;
75997;SDS011;64685;48.762;44.822;2023-11-21T08:55:28;7.10;;;2.70;;
75997;SDS011;64685;48.762;44.822;2023-11-21T09:00:32;9.02;;;3.67;;
75997;SDS011;64685;48.762;44.822;2023-11-21T09:05:37;7.38;;;2.88;;
75997;SDS011;64685;48.762;44.822;2023-11-21T09:10:41;7.78;;;2.90;;
75997;SDS011;64685;48.762;44.822;2023-11-21T09:15:45;5.10;;;1.88;;
75997;SDS011;64685;48.762;44.822;2023-11-21T09:20:48;5.90;;;1.83;;
75997;SDS011;64685;48.762;44.822;2023-11-21T09:25:51;7.05;;;2.00;;
75997;SDS011;64685;48.762;44.822;2023-11-21T09:30:56;11.05;;;4.72;;
75997;SDS011;64685;48.762;44.822;2023-11-21T09:35:59;11.70;;;5.57;;
75997;SDS011;64685;48.762;44.822;2023-11-21T09:41:02;8.77;;;3.72;;
75997;SDS011;64685;48.762;44.822;2023-11-21T09:46:07;10.68;;;4.22;;
75997;SDS011;64685;48.762;44.822;2023-11-21T09:51:15;10.60;;;4.47;;
75997;SDS011;64685;48.762;44.822;2023-11-21T09:56:18;5.68;;;1.73;;
75997;SDS011;64685;48.762;44.822;2023-11-21T10:01:25;5.43;;;2.25;;
75997;SDS011;64685;48.762;44.822;2023-11-21T10:06:30;6.15;;;2.45;;
75997;SDS011;64685;48.762;44.822;2023-11-21T10:11:34;4.60;;;1.25;;
75997;SDS011;64685;48.762;44.822;2023-11-21T10:16:37;2.10;;;0.70;;
75997;SDS011;64685;48.762;44.822;2023-11-21T10:21:41;0.63;;;0.40;;
75997;SDS011;64685;48.762;44.822;2023-11-21T10:26:44;1.17;;;0.55;;
75997;SDS011;64685;48.762;44.822;2023-11-21T10:31:54;3.70;;;1.10;;
75997;SDS011;64685;48.762;44.822;2023-11-21T10:42:13;5.25;;;1.60;;
75997;SDS011;64685;48.762;44.822;2023-11-21T10:47:16;2.40;;;0.80;;
75997;SDS011;64685;48.762;44.822;2023-11-21T10:52:21;2.17;;;1.08;;
75997;SDS011;64685;48.762;44.822;2023-11-21T10:57:24;5.85;;;2.13;;
75997;SDS011;64685;48.762;44.822;2023-11-21T11:02:28;4.13;;;1.30;;
75997;SDS011;64685;48.762;44.822;2023-11-21T11:07:35;7.68;;;2.22;;
75997;SDS011;64685;48.762;44.822;2023-11-21T11:12:39;4.70;;;1.50;;
75997;SDS011;64685;48.762;44.822;2023-11-21T11:17:43;6.50;;;2.28;;
75997;SDS011;64685;48.762;44.822;2023-11-21T11:28:10;3.65;;;1.60;;
75997;SDS011;64685;48.762;44.822;2023-11-21T11:38:44;7.05;;;2.60;;
75997;SDS011;64685;48.762;44.822;2023-11-21T11:43:48;6.60;;;2.50;;
75997;SDS011;64685;48.762;44.822;2023-11-21T11:49:02;6.53;;;2.65;;
75997;SDS011;64685;48.762;44.822;2023-11-21T11:54:06;5.13;;;1.77;;
75997;SDS011;64685;48.762;44.822;2023-11-21T11:59:09;6.43;;;2.78;;
75997;SDS011;64685;48.762;44.822;2023-11-21T12:09:22;5.60;;;2.80;;
75997;SDS011;64685;48.762;44.822;2023-11-21T12:14:27;7.55;;;2.60;;
75997;SDS011;64685;48.762;44.822;2023-11-21T12:19:31;8.48;;;2.88;;
75997;SDS011;64685;48.762;44.822;2023-11-21T12:24:34;7.05;;;3.00;;
75997;SDS011;64685;48.762;44.822;2023-11-21T12:29:37;8.43;;;3.25;;
75997;SDS011;64685;48.762;44.822;2023-11-21T12:34:40;4.68;;;2.00;;
75997;SDS011;64685;48.762;44.822;2023-11-21T12:39:43;3.97;;;1.85;;
75997;SDS011;64685;48.762;44.822;2023-11-21T12:44:45;8.45;;;3.28;;
75997;SDS011;64685;48.762;44.822;2023-11-21T12:49:50;8.30;;;3.67;;
75997;SDS011;64685;48.762;44.822;2023-11-21T12:54:53;8.10;;;3.80;;
75997;SDS011;64685;48.762;44.822;2023-11-21T12:59:59;9.90;;;4.10;;
75997;SDS011;64685;48.762;44.822;2023-11-21T13:05:04;6.38;;;2.80;;
75997;SDS011;64685;48.762;44.822;2023-11-21T13:10:16;6.57;;;2.72;;
75997;SDS011;64685;48.762;44.822;2023-11-21T13:15:20;5.88;;;2.78;;
75997;SDS011;64685;48.762;44.822;2023-11-21T13:20:23;10.25;;;3.83;;
75997;SDS011;64685;48.762;44.822;2023-11-21T13:25:29;6.28;;;3.05;;
75997;SDS011;64685;48.762;44.822;2023-11-21T13:30:33;8.35;;;4.03;;
75997;SDS011;64685;48.762;44.822;2023-11-21T13:35:37;10.10;;;4.28;;
75997;SDS011;64685;48.762;44.822;2023-11-21T13:40:46;10.85;;;4.60;;
75997;SDS011;64685;48.762;44.822;2023-11-21T13:45:52;8.10;;;3.45;;
75997;SDS011;64685;48.762;44.822;2023-11-21T13:51:19;5.47;;;2.25;;
75997;SDS011;64685;48.762;44.822;2023-11-21T13:56:23;4.45;;;2.25;;
75997;SDS011;64685;48.762;44.822;2023-11-21T14:01:27;5.80;;;2.90;;
75997;SDS011;64685;48.762;44.822;2023-11-21T14:06:33;6.43;;;2.58;;
75997;SDS011;64685;48.762;44.822;2023-11-21T14:11:42;6.70;;;2.85;;
75997;SDS011;64685;48.762;44.822;2023-11-21T14:16:49;11.38;;;4.88;;
75997;SDS011;64685;48.762;44.822;2023-11-21T14:21:53;8.45;;;3.65;;
75997;SDS011;64685;48.762;44.822;2023-11-21T14:26:56;12.32;;;5.05;;
75997;SDS011;64685;48.762;44.822;2023-11-21T14:46:02;12.98;;;5.70;;
75997;SDS011;64685;48.762;44.822;2023-11-21T14:51:06;13.35;;;5.72;;
75997;SDS011;64685;48.762;44.822;2023-11-21T14:56:28;11.95;;;5.38;;
75997;SDS011;64685;48.762;44.822;2023-11-21T15:01:34;13.82;;;5.57;;
75997;SDS011;64685;48.762;44.822;2023-11-21T15:06:47;11.00;;;4.85;;
75997;SDS011;64685;48.762;44.822;2023-11-21T15:11:50;5.10;;;2.40;;
75997;SDS011;64685;48.762;44.822;2023-11-21T15:17:00;14.65;;;5.53;;
75997;SDS011;64685;48.762;44.822;2023-11-21T15:22:04;9.13;;;4.45;;
75997;SDS011;64685;48.762;44.822;2023-11-21T15:27:09;6.65;;;3.33;;
75997;SDS011;64685;48.762;44.822;2023-11-21T15:32:13;7.90;;;3.13;;
